Time;durP1;ratioP1;P1;durP2;ratioP2;P2;SDS_P1;SDS_P2;PMS_P1;PMS_P2;Temp;Humidity;BMP_temperature;BMP_pressure;BME280_temperature;BME280_humidity;BME280_pressure;Samples;Min_cycle;Max_cycle;Signal;HPM_P1;HPM_P2
2021/03/25 00:02:01;;;;;;;;;;;2.80;99.90;;;;;;5111597;28;19957;-69
2021/03/25 00:04:27;;;;;;;;;;;2.70;99.90;;;;;;5093128;28;19904;-69
2021/03/25 00:06:54;;;;;;;;;;;2.60;99.90;;;;;;5111687;28;19911;-69
2021/03/25 00:09:21;;;;;;;;;;;2.60;99.90;;;;;;5111403;28;19912;-69
2021/03/25 00:11:46;;;;;;;;;;;2.60;99.90;;;;;;5111326;28;19903;-69
2021/03/25 00:14:12;;;;;;;;;;;2.70;99.90;;;;;;5111603;28;20376;-69
2021/03/25 00:16:37;;;;;;;;;;;2.60;99.90;;;;;;5111492;28;20014;-69
2021/03/25 00:19:04;;;;;;;;;;;2.60;99.90;;;;;;5093322;28;19915;-70
2021/03/25 00:21:30;;;;;;;;;;;2.50;99.90;;;;;;5111608;28;19903;-69
2021/03/25 00:23:55;;;;;;;;;;;2.50;99.90;;;;;;5111459;28;19936;-69
2021/03/25 00:26:21;;;;;;;;;;;2.50;99.90;;;;;;5093295;28;19918;-69
2021/03/25 00:28:46;;;;;;;;;;;2.40;99.90;;;;;;5111788;28;19903;-69
2021/03/25 00:31:12;;;;;;;;;;;2.40;99.90;;;;;;5111762;28;19907;-69
2021/03/25 00:33:37;;;;;;;;;;;2.30;99.90;;;;;;5111377;28;19915;-69
2021/03/25 00:36:03;;;;;;;;;;;2.20;99.90;;;;;;5111946;28;20209;-69
2021/03/25 00:38:28;;;;;;;;;;;2.20;99.90;;;;;;5111681;28;20312;-69
2021/03/25 00:40:54;;;;;;;;;;;2.20;99.90;;;;;;5111508;28;19904;-69
2021/03/25 00:43:21;;;;;;;;;;;2.30;99.90;;;;;;5111519;28;20005;-69
2021/03/25 00:45:47;;;;;;;;;;;2.30;99.90;;;;;;5093507;28;19910;-69
2021/03/25 00:48:14;;;;;;;;;;;2.30;99.90;;;;;;5111902;28;20001;-70
2021/03/25 00:50:40;;;;;;;;;;;2.20;99.90;;;;;;5111413;28;19910;-69
2021/03/25 00:53:07;;;;;;;;;;;2.20;99.90;;;;;;5093000;28;19908;-68
2021/03/25 00:55:32;;;;;;;;;;;2.30;99.90;;;;;;5111134;28;19911;-69
2021/03/25 00:57:58;;;;;;;;;;;2.20;99.90;;;;;;5111351;28;19904;-70
2021/03/25 01:00:26;;;;;;;;;;;2.20;99.90;;;;;;5111198;28;19963;-69
2021/03/25 01:02:52;;;;;;;;;;;2.20;99.90;;;;;;5110908;28;20422;-69
2021/03/25 01:05:18;;;;;;;;;;;2.10;99.90;;;;;;5111101;28;19913;-69
2021/03/25 01:07:43;;;;;;;;;;;2.00;99.90;;;;;;5111278;28;20263;-69
2021/03/25 01:10:14;;;;;;;;;;;1.90;99.90;;;;;;5111662;28;19912;-69
2021/03/25 01:12:40;;;;;;;;;;;1.80;99.90;;;;;;5114678;28;20391;-69
2021/03/25 01:15:06;;;;;;;;;;;1.90;99.90;;;;;;5115010;28;20415;-70
2021/03/25 01:17:31;;;;;;;;;;;1.80;99.90;;;;;;5114633;28;19962;-69
2021/03/25 01:19:57;;;;;;;;;;;1.80;99.90;;;;;;5096421;28;19939;-69
2021/03/25 01:22:22;;;;;;;;;;;1.80;99.90;;;;;;5114102;28;20354;-70
2021/03/25 01:24:48;;;;;;;;;;;1.90;99.90;;;;;;5114183;28;20179;-69
2021/03/25 01:27:13;;;;;;;;;;;1.90;99.90;;;;;;5114674;28;19903;-70
2021/03/25 01:29:39;;;;;;;;;;;1.90;99.90;;;;;;5114540;28;20254;-69
2021/03/25 01:32:04;;;;;;;;;;;1.80;99.90;;;;;;5114098;28;19910;-69
2021/03/25 01:34:30;;;;;;;;;;;1.90;99.90;;;;;;5114884;28;19918;-69
2021/03/25 01:36:55;;;;;;;;;;;2.00;99.90;;;;;;5114361;28;19994;-69
2021/03/25 01:39:21;;;;;;;;;;;1.90;99.90;;;;;;5114279;28;19904;-69
2021/03/25 01:41:46;;;;;;;;;;;1.90;99.90;;;;;;5114499;28;19903;-69
2021/03/25 01:44:28;;;;;;;;;;;1.90;99.90;;;;;;5114514;28;19949;-69
2021/03/25 01:46:54;;;;;;;;;;;1.90;99.90;;;;;;5095979;28;19903;-69
2021/03/25 01:49:19;;;;;;;;;;;1.80;99.90;;;;;;5114180;28;19904;-69
2021/03/25 01:51:57;;;;;;;;;;;1.80;99.90;;;;;;5113830;28;19991;-69
2021/03/25 01:54:41;;;;;;;;;;;1.70;99.90;;;;;;5114015;28;20393;-69
2021/03/25 01:57:24;;;;;;;;;;;1.50;99.90;;;;;;5095622;28;19930;-69
2021/03/25 01:59:56;;;;;;;;;;;1.50;99.90;;;;;;5113911;28;19904;-69
2021/03/25 02:02:35;;;;;;;;;;;1.60;99.90;;;;;;5113669;28;20262;-69
2021/03/25 02:05:01;;;;;;;;;;;1.60;99.90;;;;;;5095599;28;20328;-69
2021/03/25 02:07:38;;;;;;;;;;;1.60;99.90;;;;;;5113785;28;19910;-69
2021/03/25 02:10:22;;;;;;;;;;;1.60;99.90;;;;;;5114049;28;19915;-69
2021/03/25 02:13:00;;;;;;;;;;;1.50;99.90;;;;;;5113464;28;19903;-70
2021/03/25 02:15:35;;;;;;;;;;;1.50;99.90;;;;;;5095331;28;19903;-69
2021/03/25 02:18:03;;;;;;;;;;;1.50;99.90;;;;;;5113645;28;19908;-69
2021/03/25 02:20:32;;;;;;;;;;;1.50;99.90;;;;;;5113505;28;19907;-70
2021/03/25 02:23:11;;;;;;;;;;;1.40;99.90;;;;;;5112741;28;19911;-70
2021/03/25 02:25:56;;;;;;;;;;;1.30;99.90;;;;;;5113572;28;19907;-70
2021/03/25 02:28:34;;;;;;;;;;;1.40;99.90;;;;;;5113428;28;19957;-70
2021/03/25 02:31:07;;;;;;;;;;;1.50;99.90;;;;;;5095030;28;20002;-69
2021/03/25 02:33:33;;;;;;;;;;;1.30;99.90;;;;;;5113022;28;19992;-69
2021/03/25 02:36:01;;;;;;;;;;;1.30;99.90;;;;;;5094810;28;19956;-68
2021/03/25 02:38:53;;;;;;;;;;;1.30;99.90;;;;;;5113233;28;19910;-69
2021/03/25 02:41:24;;;;;;;;;;;1.40;99.90;;;;;;5110776;28;19914;-69
2021/03/25 02:43:53;;;;;;;;;;;1.50;99.90;;;;;;5113292;28;19904;-69
2021/03/25 02:46:20;;;;;;;;;;;1.60;99.90;;;;;;5113144;28;19910;-69
2021/03/25 02:48:47;;;;;;;;;;;1.50;99.90;;;;;;5094844;28;19903;-69
2021/03/25 02:51:18;;;;;;;;;;;1.30;99.90;;;;;;5113132;28;19904;-69
2021/03/25 02:53:44;;;;;;;;;;;1.20;99.90;;;;;;5112893;28;19943;-69
2021/03/25 02:56:18;;;;;;;;;;;1.20;99.90;;;;;;5094785;28;19952;-69
2021/03/25 02:58:44;;;;;;;;;;;1.10;99.90;;;;;;5113043;28;19903;-69
2021/03/25 03:01:11;;;;;;;;;;;1.00;99.90;;;;;;5095359;28;20326;-69
2021/03/25 03:03:42;;;;;;;;;;;0.90;99.90;;;;;;5112813;28;20385;-69
2021/03/25 03:06:12;;;;;;;;;;;0.80;99.90;;;;;;5113005;28;20378;-69
2021/03/25 06:43:23;;;;;;;;;;;2.20;99.90;;;;;;5191689;22;20363;-69
2021/03/25 06:45:57;;;;;;;;;;;2.30;99.90;;;;;;5021801;28;20271;-70
2021/03/25 06:48:38;;;;;;;;;;;2.50;99.90;;;;;;5032817;28;19936;-69
2021/03/25 06:51:22;;;;;;;;;;;2.60;99.90;;;;;;5018253;28;19936;-69
2021/03/25 06:53:50;;;;;;;;;;;2.70;99.90;;;;;;4993820;28;19913;-69
2021/03/25 06:56:17;;;;;;;;;;;2.80;99.90;;;;;;4993249;28;19964;-69
2021/03/25 06:58:45;;;;;;;;;;;3.00;99.90;;;;;;4993523;28;19952;-70
2021/03/25 07:01:20;;;;;;;;;;;3.00;99.90;;;;;;4980260;28;19909;-69
2021/03/25 07:03:46;;;;;;;;;;;3.20;99.90;;;;;;4978963;28;19910;-70
2021/03/25 07:06:12;;;;;;;;;;;3.40;99.90;;;;;;4994099;28;19934;-69
2021/03/25 07:08:38;;;;;;;;;;;3.40;99.90;;;;;;4992266;28;19905;-69
2021/03/25 07:11:18;;;;;;;;;;;3.60;99.90;;;;;;5000137;28;19919;-69
2021/03/25 07:14:02;;;;;;;;;;;3.70;99.90;;;;;;4975192;28;19906;-69
2021/03/25 07:16:29;;;;;;;;;;;3.70;99.90;;;;;;4975145;28;19916;-69
2021/03/25 07:19:03;;;;;;;;;;;3.90;99.90;;;;;;4993069;28;19920;-70
2021/03/25 07:21:44;;;;;;;;;;;3.90;99.90;;;;;;4992269;28;19906;-69
2021/03/25 07:24:28;;;;;;;;;;;4.00;99.90;;;;;;4992444;28;19906;-70
2021/03/25 07:26:56;;;;;;;;;;;4.10;99.90;;;;;;4992487;28;19906;-70
2021/03/25 07:29:23;;;;;;;;;;;4.20;99.90;;;;;;4992571;28;19955;-70
2021/03/25 07:32:07;;;;;;;;;;;4.30;99.90;;;;;;4992209;28;20037;-70
2021/03/25 07:34:35;;;;;;;;;;;4.30;99.90;;;;;;4992459;28;19906;-70
2021/03/25 07:37:02;;;;;;;;;;;4.50;99.90;;;;;;4992239;28;20364;-70
2021/03/25 07:39:29;;;;;;;;;;;4.60;99.90;;;;;;4992618;28;20016;-70
2021/03/25 07:41:56;;;;;;;;;;;4.70;99.90;;;;;;4991967;28;20351;-70
2021/03/25 07:44:24;;;;;;;;;;;4.80;99.90;;;;;;4992159;28;19914;-70
2021/03/25 07:46:51;;;;;;;;;;;5.00;99.90;;;;;;4992524;28;19905;-69
2021/03/25 07:49:17;;;;;;;;;;;5.10;99.90;;;;;;4974756;28;20340;-70
2021/03/25 07:51:43;;;;;;;;;;;5.20;99.90;;;;;;4995353;28;19909;-70
2021/03/25 07:54:13;;;;;;;;;;;5.30;99.90;;;;;;4993931;28;19909;-70
2021/03/25 07:56:51;;;;;;;;;;;5.30;99.90;;;;;;4973901;28;19914;-70
2021/03/25 07:59:26;;;;;;;;;;;5.60;99.90;;;;;;4972529;28;19914;-70
2021/03/25 08:01:51;;;;;;;;;;;5.70;99.90;;;;;;4971840;28;19910;-70
2021/03/25 08:04:23;;;;;;;;;;;5.80;99.90;;;;;;4992054;28;19909;-71
2021/03/25 08:06:56;;;;;;;;;;;6.00;99.90;;;;;;5008051;28;19957;-70
2021/03/25 08:09:22;;;;;;;;;;;6.00;99.90;;;;;;4995593;28;19906;-70
2021/03/25 08:11:58;;;;;;;;;;;6.20;99.90;;;;;;4990387;28;20013;-69
2021/03/25 08:14:32;;;;;;;;;;;6.30;99.90;;;;;;4982989;28;19975;-70
2021/03/25 08:17:01;;;;;;;;;;;6.40;99.90;;;;;;4990500;28;19909;-70
2021/03/25 08:19:36;;;;;;;;;;;6.40;99.90;;;;;;4974490;28;19937;-70
2021/03/25 08:22:20;;;;;;;;;;;6.40;99.90;;;;;;4995390;28;19906;-69
2021/03/25 08:24:57;;;;;;;;;;;6.60;99.90;;;;;;4994771;28;20280;-70
2021/03/25 08:27:25;;;;;;;;;;;6.80;99.90;;;;;;4994432;28;19906;-70
2021/03/25 08:30:09;;;;;;;;;;;7.00;99.90;;;;;;4984090;28;20229;-70
2021/03/25 08:32:53;;;;;;;;;;;7.10;99.90;;;;;;4995107;28;20403;-70
2021/03/25 08:35:26;;;;;;;;;;;7.30;99.90;;;;;;4994886;28;19971;-70
2021/03/25 08:38:05;;;;;;;;;;;7.50;99.90;;;;;;4979847;28;19909;-70
2021/03/25 08:40:38;;;;;;;;;;;7.60;99.90;;;;;;5014903;28;20363;-70
2021/03/25 08:43:05;;;;;;;;;;;7.70;99.90;;;;;;5015024;28;20061;-70
2021/03/25 08:45:43;;;;;;;;;;;7.80;99.90;;;;;;5015079;28;20390;-70
2021/03/25 08:48:22;;;;;;;;;;;7.90;99.90;;;;;;4997392;28;19906;-70
2021/03/25 08:50:50;;;;;;;;;;;8.00;99.90;;;;;;5015138;28;19905;-71
2021/03/25 08:53:34;;;;;;;;;;;8.10;99.50;;;;;;5014904;28;20527;-71
2021/03/25 08:56:02;;;;;;;;;;;8.40;99.90;;;;;;5014906;28;20418;-69
2021/03/25 08:58:31;;;;;;;;;;;8.40;99.30;;;;;;4997424;28;19906;-70
2021/03/25 09:01:00;;;;;;;;;;;8.60;99.30;;;;;;5014528;28;19956;-70
2021/03/25 09:03:28;;;;;;;;;;;8.80;99.30;;;;;;5014713;28;19940;-71
2021/03/25 09:06:02;;;;;;;;;;;9.00;98.80;;;;;;4997349;28;20319;-71
2021/03/25 09:08:29;;;;;;;;;;;9.00;97.70;;;;;;5014898;28;19975;-71
2021/03/25 09:10:57;;;;;;;;;;;9.00;98.60;;;;;;4997547;28;19912;-69
2021/03/25 09:13:24;;;;;;;;;;;9.20;99.60;;;;;;5014576;28;19906;-73
2021/03/25 09:15:51;;;;;;;;;;;9.50;99.50;;;;;;5014802;28;19905;-73
2021/03/25 09:18:19;;;;;;;;;;;9.60;98.40;;;;;;5014865;28;19932;-71
2021/03/25 09:20:46;;;;;;;;;;;9.70;98.40;;;;;;5014783;28;19951;-73
2021/03/25 09:23:33;;;;;;;;;;;9.90;98.20;;;;;;5014116;28;20051;-73
2021/03/25 09:25:59;;;;;;;;;;;9.90;97.10;;;;;;5014402;28;19984;-73
2021/03/25 09:28:45;;;;;;;;;;;10.00;97.20;;;;;;5014413;28;20388;-73
2021/03/25 09:31:14;;;;;;;;;;;10.20;97.80;;;;;;5013555;28;20352;-73
2021/03/25 09:33:42;;;;;;;;;;;10.20;97.20;;;;;;5014199;28;19912;-72
2021/03/25 09:36:16;;;;;;;;;;;10.30;95.90;;;;;;5014105;28;19928;-73
2021/03/25 09:38:43;;;;;;;;;;;10.40;96.50;;;;;;5013399;28;19906;-72
2021/03/25 09:41:15;;;;;;;;;;;10.60;97.00;;;;;;4995958;28;19905;-69
2021/03/25 09:43:42;;;;;;;;;;;10.70;97.00;;;;;;5013999;28;20129;-73
2021/03/25 09:46:26;;;;;;;;;;;10.90;97.20;;;;;;4996333;28;20356;-71
2021/03/25 09:48:54;;;;;;;;;;;11.10;96.60;;;;;;4996327;28;19941;-72
2021/03/25 09:51:24;;;;;;;;;;;11.30;95.60;;;;;;5013541;28;19909;-73
2021/03/25 09:53:52;;;;;;;;;;;11.50;96.50;;;;;;5013865;28;19928;-73
2021/03/25 09:56:30;;;;;;;;;;;11.70;96.10;;;;;;5014216;28;20008;-73
2021/03/25 09:58:56;;;;;;;;;;;12.00;95.50;;;;;;4996234;28;19916;-73
2021/03/25 10:01:40;;;;;;;;;;;12.20;93.80;;;;;;5013315;28;19905;-73
2021/03/25 10:04:25;;;;;;;;;;;12.40;95.60;;;;;;5013602;28;20291;-72
2021/03/25 10:07:11;;;;;;;;;;;12.60;95.00;;;;;;5013612;28;19996;-73
2021/03/25 10:10:00;;;;;;;;;;;12.80;93.40;;;;;;4985323;28;19949;-73
2021/03/25 10:12:45;;;;;;;;;;;12.90;92.50;;;;;;5005266;28;20368;-71
2021/03/25 10:15:29;;;;;;;;;;;13.00;92.40;;;;;;5013423;28;19906;-73
2021/03/25 10:17:55;;;;;;;;;;;13.30;91.90;;;;;;5013254;28;19936;-73
2021/03/25 10:20:39;;;;;;;;;;;13.40;90.10;;;;;;5013283;28;20352;-73
2021/03/25 10:23:12;;;;;;;;;;;13.60;92.80;;;;;;4995289;28;19996;-73
2021/03/25 10:25:37;;;;;;;;;;;13.70;90.70;;;;;;5013329;28;19952;-72
2021/03/25 10:28:03;;;;;;;;;;;13.80;90.60;;;;;;4995898;28;19913;-73
2021/03/25 10:30:30;;;;;;;;;;;13.90;90.80;;;;;;5013170;28;20385;-71
2021/03/25 10:32:57;;;;;;;;;;;14.10;90.80;;;;;;5012807;28;19951;-72
2021/03/25 10:35:28;;;;;;;;;;;14.30;90.70;;;;;;5013068;28;19973;-73
2021/03/25 10:37:56;;;;;;;;;;;14.40;90.10;;;;;;5013112;28;20114;-74
2021/03/25 10:40:25;;;;;;;;;;;14.50;88.50;;;;;;5013016;28;19932;-73
2021/03/25 10:42:55;;;;;;;;;;;14.60;87.60;;;;;;5011730;28;19940;-73
2021/03/25 10:45:26;;;;;;;;;;;14.60;86.00;;;;;;5012776;28;19913;-73
2021/03/25 10:47:59;;;;;;;;;;;14.80;88.70;;;;;;4995358;28;19906;-74
2021/03/25 10:50:32;;;;;;;;;;;14.90;84.90;;;;;;5012822;28;19931;-73
2021/03/25 10:53:00;;;;;;;;;;;15.00;83.80;;;;;;5012434;28;19913;-73
2021/03/25 10:55:28;;;;;;;;;;;15.10;85.40;;;;;;5012751;28;19905;-73
2021/03/25 10:57:55;;;;;;;;;;;15.20;84.30;;;;;;5012854;28;20330;-74
2021/03/25 11:00:23;;;;;;;;;;;15.40;84.90;;;;;;5012686;28;19940;-73
2021/03/25 11:02:48;;;;;;;;;;;15.50;83.50;;;;;;4994638;28;20117;-74
2021/03/25 11:05:22;;;;;;;;;;;15.70;83.20;;;;;;5012498;28;19905;-73
2021/03/25 11:07:55;;;;;;;;;;;15.90;84.80;;;;;;4994829;28;19906;-73
2021/03/25 11:10:26;;;;;;;;;;;16.10;80.80;;;;;;4994820;28;19912;-73
2021/03/25 11:13:06;;;;;;;;;;;16.40;76.50;;;;;;5012004;28;20402;-73
2021/03/25 11:15:34;;;;;;;;;;;16.60;75.90;;;;;;5012428;28;19906;-74
2021/03/25 11:18:01;;;;;;;;;;;16.90;78.40;;;;;;5012473;28;20360;-73
2021/03/25 11:20:28;;;;;;;;;;;17.00;72.10;;;;;;5012325;28;19905;-74
2021/03/25 11:22:54;;;;;;;;;;;17.20;75.20;;;;;;4994292;28;20355;-73
2021/03/25 11:25:30;;;;;;;;;;;17.30;74.80;;;;;;5012154;28;20276;-73
2021/03/25 11:28:02;;;;;;;;;;;17.40;75.50;;;;;;5012224;28;19913;-73
2021/03/25 11:30:31;;;;;;;;;;;17.50;77.70;;;;;;5012216;28;19945;-74
2021/03/25 11:32:56;;;;;;;;;;;17.50;71.00;;;;;;5011998;28;19988;-74
2021/03/25 11:35:34;;;;;;;;;;;17.50;71.00;;;;;;5012143;28;20390;-72
2021/03/25 11:38:15;;;;;;;;;;;17.60;70.10;;;;;;4994327;28;19913;-74
2021/03/25 11:40:42;;;;;;;;;;;17.70;69.20;;;;;;5012079;28;19957;-74
2021/03/25 11:43:10;;;;;;;;;;;17.90;70.20;;;;;;5011700;28;19916;-74
2021/03/25 11:45:40;;;;;;;;;;;18.20;65.80;;;;;;4994224;28;19914;-74
2021/03/25 11:48:16;;;;;;;;;;;18.40;64.80;;;;;;5012100;28;19905;-74
2021/03/25 11:50:41;;;;;;;;;;;18.50;63.30;;;;;;4994248;28;19905;-74
2021/03/25 11:53:25;;;;;;;;;;;18.60;58.30;;;;;;5011434;28;20398;-73
2021/03/25 11:55:51;;;;;;;;;;;18.60;57.80;;;;;;5011726;28;20060;-72
2021/03/25 11:58:19;;;;;;;;;;;18.50;58.20;;;;;;5011724;28;19916;-73
2021/03/25 12:01:03;;;;;;;;;;;18.50;55.20;;;;;;5011788;28;19909;-72
2021/03/25 12:03:33;;;;;;;;;;;18.50;62.30;;;;;;5011419;28;19909;-74
2021/03/25 12:05:59;;;;;;;;;;;19.40;60.90;;;;;;5011541;28;20023;-74
2021/03/25 12:08:26;;;;;;;;;;;19.70;54.20;;;;;;5011857;28;20036;-71
2021/03/25 12:10:59;;;;;;;;;;;20.10;50.90;;;;;;5011899;28;20350;-74
2021/03/25 12:13:25;;;;;;;;;;;20.70;50.30;;;;;;4993987;28;19913;-74
2021/03/25 12:15:50;;;;;;;;;;;20.50;48.80;;;;;;4994220;28;19905;-74
2021/03/25 12:18:30;;;;;;;;;;;20.40;48.10;;;;;;5011426;28;20071;-74
2021/03/25 12:20:57;;;;;;;;;;;20.30;49.50;;;;;;4993823;28;20329;-74
2021/03/25 12:23:27;;;;;;;;;;;20.50;48.10;;;;;;5011049;28;19905;-74
2021/03/25 12:25:54;;;;;;;;;;;20.20;46.10;;;;;;5011236;28;19988;-74
2021/03/25 12:28:20;;;;;;;;;;;20.20;46.60;;;;;;5011354;28;20000;-72
2021/03/25 12:30:46;;;;;;;;;;;20.50;46.50;;;;;;5011285;28;20435;-74
2021/03/25 12:33:16;;;;;;;;;;;20.30;47.30;;;;;;4993435;28;20013;-72
2021/03/25 12:35:42;;;;;;;;;;;19.90;47.70;;;;;;5011369;28;20287;-72
2021/03/25 12:38:08;;;;;;;;;;;19.70;48.90;;;;;;4993494;28;19909;-74
2021/03/25 12:40:33;;;;;;;;;;;19.90;49.50;;;;;;5011080;28;19953;-73
2021/03/25 12:42:59;;;;;;;;;;;20.80;49.10;;;;;;4993236;28;20408;-74
2021/03/25 12:45:27;;;;;;;;;;;21.60;45.30;;;;;;4993283;28;19914;-73
2021/03/25 12:47:53;;;;;;;;;;;22.10;43.80;;;;;;5011231;28;19912;-74
2021/03/25 12:50:18;;;;;;;;;;;21.80;42.50;;;;;;4993566;28;19909;-73
2021/03/25 12:52:44;;;;;;;;;;;21.40;45.10;;;;;;4993183;28;19906;-73
2021/03/25 12:55:09;;;;;;;;;;;21.00;45.10;;;;;;5011697;28;19948;-74
2021/03/25 12:57:35;;;;;;;;;;;21.00;45.80;;;;;;5011052;28;20249;-74
2021/03/25 13:00:01;;;;;;;;;;;21.70;44.30;;;;;;5011009;28;20291;-74
2021/03/25 13:02:26;;;;;;;;;;;22.10;41.50;;;;;;4993227;28;20435;-73
2021/03/25 13:04:52;;;;;;;;;;;22.20;41.30;;;;;;4993489;28;19955;-73
2021/03/25 13:07:17;;;;;;;;;;;22.50;41.40;;;;;;5013452;28;19905;-74
2021/03/25 13:09:43;;;;;;;;;;;22.60;40.30;;;;;;4996980;28;20356;-75
2021/03/25 13:12:13;;;;;;;;;;;21.70;41.50;;;;;;5014418;28;19917;-74
2021/03/25 13:14:38;;;;;;;;;;;21.20;44.20;;;;;;5014535;28;20356;-73
2021/03/25 13:17:04;;;;;;;;;;;20.90;44.40;;;;;;5014497;28;20000;-74
2021/03/25 13:19:29;;;;;;;;;;;20.30;46.20;;;;;;5014506;28;20279;-74
2021/03/25 13:21:55;;;;;;;;;;;20.10;48.30;;;;;;5014089;28;20048;-74
2021/03/25 13:24:21;;;;;;;;;;;20.10;50.10;;;;;;4996840;28;19932;-74
2021/03/25 13:26:46;;;;;;;;;;;20.10;50.00;;;;;;5014360;28;19960;-75
2021/03/25 13:29:12;;;;;;;;;;;20.00;47.90;;;;;;5014231;28;19971;-73
2021/03/25 13:31:37;;;;;;;;;;;19.90;48.60;;;;;;4996403;28;19959;-74
2021/03/25 13:34:03;;;;;;;;;;;20.70;49.20;;;;;;5014377;28;19909;-73
2021/03/25 13:36:28;;;;;;;;;;;21.90;44.60;;;;;;5014141;28;20327;-74
2021/03/25 13:38:53;;;;;;;;;;;22.70;44.60;;;;;;4996628;28;19905;-74
2021/03/25 13:41:19;;;;;;;;;;;23.20;43.40;;;;;;5013873;28;20426;-74
2021/03/25 13:43:44;;;;;;;;;;;23.00;43.40;;;;;;4996173;28;20432;-75
2021/03/25 13:46:10;;;;;;;;;;;22.60;42.80;;;;;;5014063;28;20316;-74
2021/03/25 13:48:35;;;;;;;;;;;22.20;42.30;;;;;;5014016;28;20303;-74
2021/03/25 13:51:02;;;;;;;;;;;21.80;42.10;;;;;;5013898;28;20280;-74
2021/03/25 13:53:28;;;;;;;;;;;21.30;44.60;;;;;;5013721;28;19906;-74
2021/03/25 13:55:54;;;;;;;;;;;21.00;44.80;;;;;;4996167;28;19906;-74
2021/03/25 13:58:21;;;;;;;;;;;20.90;44.80;;;;;;5013660;28;19958;-72
2021/03/25 14:00:47;;;;;;;;;;;20.50;44.80;;;;;;5013820;28;20283;-73
2021/03/25 14:03:13;;;;;;;;;;;20.30;44.40;;;;;;4995828;28;19905;-74
2021/03/25 14:05:39;;;;;;;;;;;20.20;46.40;;;;;;4996000;28;19913;-73
2021/03/25 14:08:05;;;;;;;;;;;20.20;45.60;;;;;;5013605;28;20384;-74
2021/03/25 14:10:31;;;;;;;;;;;20.10;46.20;;;;;;4995982;28;19905;-74
2021/03/25 14:12:57;;;;;;;;;;;20.60;46.50;;;;;;4995799;28;19993;-72
2021/03/25 14:15:24;;;;;;;;;;;21.60;44.20;;;;;;5013487;28;19909;-75
2021/03/25 14:17:50;;;;;;;;;;;22.10;43.40;;;;;;5013201;28;20371;-74
2021/03/25 14:20:17;;;;;;;;;;;22.80;42.00;;;;;;4995777;28;19933;-73
2021/03/25 14:22:43;;;;;;;;;;;23.90;41.00;;;;;;5013066;28;19905;-75
2021/03/25 14:25:12;;;;;;;;;;;25.30;40.70;;;;;;5013306;28;19910;-74
2021/03/25 14:27:38;;;;;;;;;;;25.60;39.30;;;;;;4995264;28;19913;-75
2021/03/25 14:30:04;;;;;;;;;;;25.80;39.70;;;;;;5013197;28;19939;-73
2021/03/25 14:32:30;;;;;;;;;;;26.30;38.00;;;;;;4995284;28;20338;-73
2021/03/25 14:34:55;;;;;;;;;;;26.30;37.90;;;;;;5013061;28;19913;-75
2021/03/25 14:37:20;;;;;;;;;;;26.80;39.20;;;;;;5013081;28;19910;-72
2021/03/25 14:39:46;;;;;;;;;;;26.60;38.60;;;;;;5013016;28;19910;-73
2021/03/25 14:42:13;;;;;;;;;;;26.00;37.40;;;;;;5012697;28;19906;-73
2021/03/25 14:44:38;;;;;;;;;;;25.40;36.00;;;;;;5012734;28;19913;-71
2021/03/25 14:47:04;;;;;;;;;;;25.10;34.30;;;;;;5012854;28;19912;-75
2021/03/25 14:49:29;;;;;;;;;;;24.20;34.60;;;;;;4995483;28;20352;-74
2021/03/25 14:51:55;;;;;;;;;;;23.90;35.10;;;;;;5012484;28;19913;-74
2021/03/25 14:54:21;;;;;;;;;;;24.10;35.60;;;;;;5012861;28;20057;-75
2021/03/25 14:56:46;;;;;;;;;;;24.20;35.30;;;;;;4995226;28;19910;-75
2021/03/25 14:59:13;;;;;;;;;;;24.10;34.30;;;;;;5012756;28;19906;-75
2021/03/25 15:01:38;;;;;;;;;;;24.30;34.70;;;;;;5012633;28;20280;-72
2021/03/25 15:04:04;;;;;;;;;;;25.30;34.20;;;;;;5012692;28;19905;-75
2021/03/25 15:06:29;;;;;;;;;;;25.80;32.80;;;;;;4995014;28;20363;-72
2021/03/25 15:08:57;;;;;;;;;;;26.00;32.80;;;;;;5012589;28;20326;-73
2021/03/25 15:11:22;;;;;;;;;;;25.10;33.30;;;;;;5012226;28;19912;-72
2021/03/25 15:13:47;;;;;;;;;;;24.10;34.90;;;;;;5012600;28;19905;-72
2021/03/25 15:16:13;;;;;;;;;;;23.30;34.90;;;;;;5012479;28;19955;-75
2021/03/25 15:18:39;;;;;;;;;;;22.80;37.40;;;;;;5012656;28;19916;-71
2021/03/25 15:21:05;;;;;;;;;;;22.50;36.10;;;;;;5012787;28;20599;-71
2021/03/25 15:23:33;;;;;;;;;;;22.00;36.70;;;;;;5012276;28;20380;-71
2021/03/25 15:26:00;;;;;;;;;;;21.60;37.30;;;;;;5012460;28;19905;-71
2021/03/25 15:28:28;;;;;;;;;;;21.70;37.60;;;;;;5012134;28;20261;-73
2021/03/25 15:30:53;;;;;;;;;;;22.90;36.20;;;;;;5012080;28;19905;-73
2021/03/25 15:33:19;;;;;;;;;;;24.60;35.90;;;;;;5011933;28;19916;-71
2021/03/25 15:35:46;;;;;;;;;;;25.60;33.80;;;;;;5012178;28;19912;-71
2021/03/25 15:38:15;;;;;;;;;;;25.30;33.00;;;;;;5011875;28;19913;-71
2021/03/25 15:40:41;;;;;;;;;;;24.00;33.90;;;;;;5012030;28;19906;-72
2021/03/25 15:43:07;;;;;;;;;;;22.70;36.10;;;;;;4994012;28;20000;-71
2021/03/25 15:45:34;;;;;;;;;;;21.90;37.10;;;;;;4994309;28;19960;-71
2021/03/25 15:48:00;;;;;;;;;;;21.10;37.80;;;;;;5011924;28;19948;-71
2021/03/25 15:50:25;;;;;;;;;;;20.40;38.20;;;;;;5011927;28;20331;-71
2021/03/25 15:52:51;;;;;;;;;;;19.80;39.50;;;;;;4994034;28;20000;-75
2021/03/25 15:55:17;;;;;;;;;;;19.30;39.50;;;;;;5011160;28;19960;-72
2021/03/25 15:57:43;;;;;;;;;;;18.90;40.30;;;;;;4994119;28;20276;-74
2021/03/25 16:00:09;;;;;;;;;;;18.70;40.90;;;;;;5012002;28;19940;-73
2021/03/25 16:02:34;;;;;;;;;;;18.40;41.90;;;;;;5011623;28;19912;-73
2021/03/25 16:05:00;;;;;;;;;;;18.20;42.30;;;;;;4994599;28;20359;-74
2021/03/25 16:07:25;;;;;;;;;;;18.10;42.90;;;;;;5010332;28;19999;-74
2021/03/25 16:09:51;;;;;;;;;;;17.90;44.00;;;;;;5011578;28;19912;-74
2021/03/25 16:12:16;;;;;;;;;;;17.90;47.70;;;;;;4993091;28;19912;-74
2021/03/25 16:14:42;;;;;;;;;;;17.70;46.20;;;;;;5011750;28;19912;-73
2021/03/25 16:17:09;;;;;;;;;;;17.70;51.40;;;;;;5011505;28;20274;-73
2021/03/25 16:19:35;;;;;;;;;;;17.60;54.00;;;;;;5011498;28;19989;-73
2021/03/25 16:22:01;;;;;;;;;;;17.50;54.80;;;;;;4991714;28;19996;-74
2021/03/25 16:24:26;;;;;;;;;;;17.50;57.50;;;;;;4975857;28;19906;-74
2021/03/25 16:26:52;;;;;;;;;;;17.40;56.40;;;;;;4991788;28;20008;-73
2021/03/25 16:29:17;;;;;;;;;;;17.20;59.20;;;;;;4990538;28;19968;-75
2021/03/25 16:31:43;;;;;;;;;;;17.00;58.80;;;;;;4991436;28;19952;-72
2021/03/25 16:34:08;;;;;;;;;;;16.90;59.30;;;;;;4991883;28;19914;-77
2021/03/25 16:36:33;;;;;;;;;;;16.90;58.80;;;;;;4991500;28;19910;-74
2021/03/25 16:38:59;;;;;;;;;;;16.70;59.90;;;;;;4991820;28;19910;-73
2021/03/25 16:41:24;;;;;;;;;;;16.70;63.80;;;;;;4992509;28;19913;-73
2021/03/25 16:43:51;;;;;;;;;;;16.70;63.30;;;;;;4993311;28;19941;-73
2021/03/25 16:46:17;;;;;;;;;;;16.60;64.30;;;;;;4982805;28;20352;-72
2021/03/25 16:48:43;;;;;;;;;;;16.60;62.10;;;;;;4979865;28;19961;-74
2021/03/25 16:51:09;;;;;;;;;;;16.60;63.70;;;;;;4982324;28;20507;-70
2021/03/25 16:53:35;;;;;;;;;;;16.50;65.60;;;;;;4995181;28;19906;-72
2021/03/25 16:56:02;;;;;;;;;;;16.30;65.40;;;;;;4995147;28;19948;-72
2021/03/25 16:58:28;;;;;;;;;;;16.10;74.60;;;;;;4995263;28;19909;-73
2021/03/25 17:00:54;;;;;;;;;;;16.00;76.00;;;;;;4977894;28;20276;-72
2021/03/25 17:03:20;;;;;;;;;;;16.00;76.20;;;;;;4977425;28;19906;-74
2021/03/25 17:05:50;;;;;;;;;;;15.90;75.90;;;;;;4995303;28;20277;-73
2021/03/25 17:08:16;;;;;;;;;;;16.00;74.60;;;;;;4995217;28;19910;-72
2021/03/25 17:10:42;;;;;;;;;;;15.90;75.80;;;;;;4995102;28;19906;-73
2021/03/25 17:13:07;;;;;;;;;;;15.70;80.40;;;;;;4977416;28;19906;-72
2021/03/25 17:15:34;;;;;;;;;;;15.40;81.60;;;;;;4995074;28;19906;-73
2021/03/25 17:18:00;;;;;;;;;;;15.20;80.70;;;;;;4994821;28;19913;-73
2021/03/25 17:20:30;;;;;;;;;;;15.10;80.80;;;;;;4993921;28;19912;-74
2021/03/25 17:22:56;;;;;;;;;;;15.10;79.30;;;;;;4994743;28;20328;-73
2021/03/25 17:25:23;;;;;;;;;;;14.90;80.30;;;;;;4977565;28;19912;-73
2021/03/25 17:27:48;;;;;;;;;;;14.80;82.30;;;;;;4992526;28;19916;-74
2021/03/25 17:30:15;;;;;;;;;;;14.60;82.20;;;;;;4999789;28;19961;-75
2021/03/25 17:32:41;;;;;;;;;;;14.50;81.90;;;;;;4991696;28;19910;-72
2021/03/25 17:35:06;;;;;;;;;;;14.40;81.80;;;;;;4977291;28;19909;-73
2021/03/25 17:37:33;;;;;;;;;;;14.30;84.60;;;;;;4994447;28;19913;-73
2021/03/25 17:39:58;;;;;;;;;;;14.10;86.10;;;;;;4994739;28;19913;-72
2021/03/25 17:42:24;;;;;;;;;;;14.10;86.70;;;;;;4994253;28;19906;-73
2021/03/25 17:44:49;;;;;;;;;;;13.90;87.10;;;;;;4977123;28;20372;-73
2021/03/25 17:47:14;;;;;;;;;;;13.80;89.10;;;;;;4994620;28;20250;-73
2021/03/25 17:49:40;;;;;;;;;;;13.70;89.10;;;;;;4994499;28;20295;-73
2021/03/25 17:52:06;;;;;;;;;;;13.70;90.10;;;;;;4994154;28;19939;-73
2021/03/25 17:54:31;;;;;;;;;;;13.60;90.20;;;;;;4995293;28;19905;-73
2021/03/25 17:56:57;;;;;;;;;;;13.40;90.60;;;;;;4978078;28;19909;-72
2021/03/25 17:59:22;;;;;;;;;;;13.30;91.10;;;;;;4995565;28;20000;-73
2021/03/25 18:01:47;;;;;;;;;;;13.20;91.20;;;;;;4994724;28;19952;-73
2021/03/25 18:04:13;;;;;;;;;;;13.00;91.60;;;;;;4994404;28;19917;-72
2021/03/25 18:06:39;;;;;;;;;;;13.00;92.00;;;;;;4977571;28;20372;-73